sensor_id;sensor_type;location;lat;lon;timestamp;P1;durP1;ratioP1;P2;durP2;ratioP2
64915;SDS011;51427;-27.442;153.014;2023-07-31T00:00:30;6.63;;;4.60;;
64915;SDS011;51427;-27.442;153.014;2023-07-31T00:02:57;4.95;;;3.80;;
64915;SDS011;51427;-27.442;153.014;2023-07-31T00:05:25;5.05;;;3.95;;
64915;SDS011;51427;-27.442;153.014;2023-07-31T00:07:52;6.43;;;4.68;;
64915;SDS011;51427;-27.442;153.014;2023-07-31T00:10:20;6.35;;;3.90;;
64915;SDS011;51427;-27.442;153.014;2023-07-31T00:12:48;5.13;;;4.30;;
64915;SDS011;51427;-27.442;153.014;2023-07-31T00:15:16;6.95;;;4.32;;
64915;SDS011;51427;-27.442;153.014;2023-07-31T00:17:44;6.68;;;4.07;;
64915;SDS011;51427;-27.442;153.014;2023-07-31T00:20:12;5.65;;;4.20;;
64915;SDS011;51427;-27.442;153.014;2023-07-31T00:22:40;6.95;;;5.07;;
64915;SDS011;51427;-27.442;153.014;2023-07-31T00:25:07;7.32;;;5.63;;
64915;SDS011;51427;-27.442;153.014;2023-07-31T00:30:21;7.40;;;5.90;;
64915;SDS011;51427;-27.442;153.014;2023-07-31T00:32:50;9.05;;;6.78;;
64915;SDS011;51427;-27.442;153.014;2023-07-31T00:35:18;10.18;;;6.88;;
64915;SDS011;51427;-27.442;153.014;2023-07-31T00:37:46;7.72;;;5.57;;
64915;SDS011;51427;-27.442;153.014;2023-07-31T00:40:13;9.93;;;6.57;;
64915;SDS011;51427;-27.442;153.014;2023-07-31T00:42:41;6.95;;;5.55;;
64915;SDS011;51427;-27.442;153.014;2023-07-31T00:45:09;6.80;;;5.22;;
64915;SDS011;51427;-27.442;153.014;2023-07-31T00:47:37;8.27;;;5.22;;
64915;SDS011;51427;-27.442;153.014;2023-07-31T00:50:05;9.52;;;5.60;;
64915;SDS011;51427;-27.442;153.014;2023-07-31T00:52:33;9.48;;;4.85;;
64915;SDS011;51427;-27.442;153.014;2023-07-31T00:55:02;7.45;;;4.82;;
64915;SDS011;51427;-27.442;153.014;2023-07-31T00:57:30;10.98;;;5.05;;
64915;SDS011;51427;-27.442;153.014;2023-07-31T00:59:59;7.13;;;5.22;;
64915;SDS011;51427;-27.442;153.014;2023-07-31T01:02:27;6.95;;;4.38;;
64915;SDS011;51427;-27.442;153.014;2023-07-31T01:04:55;5.88;;;4.05;;
64915;SDS011;51427;-27.442;153.014;2023-07-31T01:12:26;6.22;;;4.47;;
64915;SDS011;51427;-27.442;153.014;2023-07-31T01:15:03;7.20;;;4.35;;
64915;SDS011;51427;-27.442;153.014;2023-07-31T01:17:38;10.05;;;4.38;;
64915;SDS011;51427;-27.442;153.014;2023-07-31T01:20:16;6.45;;;4.38;;
64915;SDS011;51427;-27.442;153.014;2023-07-31T01:28:13;7.72;;;3.60;;
64915;SDS011;51427;-27.442;153.014;2023-07-31T01:31:02;6.53;;;3.58;;
64915;SDS011;51427;-27.442;153.014;2023-07-31T01:33:34;6.25;;;3.90;;
64915;SDS011;51427;-27.442;153.014;2023-07-31T01:36:03;7.72;;;3.67;;
64915;SDS011;51427;-27.442;153.014;2023-07-31T01:38:31;5.47;;;3.72;;
64915;SDS011;51427;-27.442;153.014;2023-07-31T01:40:59;6.28;;;3.58;;
64915;SDS011;51427;-27.442;153.014;2023-07-31T01:43:26;7.55;;;3.90;;
64915;SDS011;51427;-27.442;153.014;2023-07-31T01:45:54;6.80;;;3.60;;
64915;SDS011;51427;-27.442;153.014;2023-07-31T01:48:21;5.93;;;3.75;;
64915;SDS011;51427;-27.442;153.014;2023-07-31T01:50:49;5.70;;;3.53;;
64915;SDS011;51427;-27.442;153.014;2023-07-31T01:53:17;4.40;;;3.63;;
64915;SDS011;51427;-27.442;153.014;2023-07-31T01:55:44;8.15;;;3.90;;
64915;SDS011;51427;-27.442;153.014;2023-07-31T01:58:12;5.47;;;3.67;;
64915;SDS011;51427;-27.442;153.014;2023-07-31T02:00:39;5.07;;;3.97;;
64915;SDS011;51427;-27.442;153.014;2023-07-31T02:03:07;5.40;;;4.10;;
64915;SDS011;51427;-27.442;153.014;2023-07-31T02:05:34;6.18;;;4.35;;
64915;SDS011;51427;-27.442;153.014;2023-07-31T02:08:02;6.10;;;4.07;;
64915;SDS011;51427;-27.442;153.014;2023-07-31T02:10:30;5.18;;;4.15;;
64915;SDS011;51427;-27.442;153.014;2023-07-31T02:12:57;6.05;;;4.50;;
64915;SDS011;51427;-27.442;153.014;2023-07-31T02:15:25;5.28;;;4.20;;
64915;SDS011;51427;-27.442;153.014;2023-07-31T02:17:52;4.95;;;4.38;;
64915;SDS011;51427;-27.442;153.014;2023-07-31T02:20:20;5.75;;;4.22;;
64915;SDS011;51427;-27.442;153.014;2023-07-31T02:22:48;6.00;;;4.32;;
64915;SDS011;51427;-27.442;153.014;2023-07-31T02:25:15;5.20;;;3.85;;
64915;SDS011;51427;-27.442;153.014;2023-07-31T02:27:43;3.90;;;3.55;;
64915;SDS011;51427;-27.442;153.014;2023-07-31T02:30:11;4.57;;;3.38;;
64915;SDS011;51427;-27.442;153.014;2023-07-31T02:32:38;5.40;;;3.80;;
64915;SDS011;51427;-27.442;153.014;2023-07-31T02:35:06;4.75;;;3.65;;
64915;SDS011;51427;-27.442;153.014;2023-07-31T02:37:34;5.75;;;3.85;;
64915;SDS011;51427;-27.442;153.014;2023-07-31T02:43:05;5.72;;;3.80;;
64915;SDS011;51427;-27.442;153.014;2023-07-31T02:45:33;3.70;;;3.30;;
64915;SDS011;51427;-27.442;153.014;2023-07-31T02:48:00;4.93;;;3.35;;
64915;SDS011;51427;-27.442;153.014;2023-07-31T02:50:28;5.28;;;3.78;;
64915;SDS011;51427;-27.442;153.014;2023-07-31T02:52:56;3.53;;;3.13;;
64915;SDS011;51427;-27.442;153.014;2023-07-31T02:55:23;4.88;;;3.88;;
64915;SDS011;51427;-27.442;153.014;2023-07-31T02:57:51;3.65;;;3.17;;
64915;SDS011;51427;-27.442;153.014;2023-07-31T03:00:19;4.10;;;3.17;;
64915;SDS011;51427;-27.442;153.014;2023-07-31T03:02:47;3.75;;;3.45;;
64915;SDS011;51427;-27.442;153.014;2023-07-31T03:05:14;4.30;;;3.70;;
64915;SDS011;51427;-27.442;153.014;2023-07-31T03:07:42;4.25;;;3.45;;
64915;SDS011;51427;-27.442;153.014;2023-07-31T03:10:09;6.00;;;3.55;;
64915;SDS011;51427;-27.442;153.014;2023-07-31T03:12:37;3.53;;;3.10;;
64915;SDS011;51427;-27.442;153.014;2023-07-31T03:15:05;4.20;;;3.20;;
64915;SDS011;51427;-27.442;153.014;2023-07-31T03:17:33;3.75;;;3.15;;
64915;SDS011;51427;-27.442;153.014;2023-07-31T03:20:00;3.85;;;3.13;;
64915;SDS011;51427;-27.442;153.014;2023-07-31T03:22:28;3.28;;;2.92;;
64915;SDS011;51427;-27.442;153.014;2023-07-31T03:24:55;3.17;;;2.88;;
64915;SDS011;51427;-27.442;153.014;2023-07-31T03:27:23;3.65;;;3.00;;
64915;SDS011;51427;-27.442;153.014;2023-07-31T03:29:50;3.10;;;2.80;;
64915;SDS011;51427;-27.442;153.014;2023-07-31T03:32:18;3.53;;;3.22;;
64915;SDS011;51427;-27.442;153.014;2023-07-31T03:34:46;4.75;;;2.80;;
64915;SDS011;51427;-27.442;153.014;2023-07-31T03:37:13;4.85;;;2.80;;
64915;SDS011;51427;-27.442;153.014;2023-07-31T03:39:41;3.20;;;2.67;;
64915;SDS011;51427;-27.442;153.014;2023-07-31T03:42:09;2.90;;;2.60;;
64915;SDS011;51427;-27.442;153.014;2023-07-31T03:44:36;3.75;;;2.88;;
64915;SDS011;51427;-27.442;153.014;2023-07-31T03:47:04;3.25;;;2.67;;
64915;SDS011;51427;-27.442;153.014;2023-07-31T03:49:31;5.82;;;3.90;;
64915;SDS011;51427;-27.442;153.014;2023-07-31T03:51:59;4.20;;;3.40;;
64915;SDS011;51427;-27.442;153.014;2023-07-31T03:54:27;5.55;;;3.22;;
64915;SDS011;51427;-27.442;153.014;2023-07-31T03:56:54;9.88;;;5.53;;
64915;SDS011;51427;-27.442;153.014;2023-07-31T03:59:22;3.95;;;3.22;;
64915;SDS011;51427;-27.442;153.014;2023-07-31T04:01:49;3.90;;;3.20;;
64915;SDS011;51427;-27.442;153.014;2023-07-31T04:04:17;3.78;;;3.20;;
64915;SDS011;51427;-27.442;153.014;2023-07-31T04:06:44;3.45;;;2.80;;
64915;SDS011;51427;-27.442;153.014;2023-07-31T04:09:12;3.40;;;2.97;;
64915;SDS011;51427;-27.442;153.014;2023-07-31T04:11:40;5.82;;;3.25;;
64915;SDS011;51427;-27.442;153.014;2023-07-31T04:14:08;3.22;;;2.67;;
64915;SDS011;51427;-27.442;153.014;2023-07-31T04:16:36;4.07;;;2.90;;
64915;SDS011;51427;-27.442;153.014;2023-07-31T04:19:03;6.10;;;2.80;;
64915;SDS011;51427;-27.442;153.014;2023-07-31T04:21:31;4.70;;;2.97;;
64915;SDS011;51427;-27.442;153.014;2023-07-31T04:23:58;3.92;;;2.70;;
64915;SDS011;51427;-27.442;153.014;2023-07-31T04:26:26;5.60;;;3.35;;
64915;SDS011;51427;-27.442;153.014;2023-07-31T04:28:54;3.38;;;3.10;;
64915;SDS011;51427;-27.442;153.014;2023-07-31T04:31:21;6.15;;;3.17;;
64915;SDS011;51427;-27.442;153.014;2023-07-31T04:33:49;4.03;;;3.25;;
64915;SDS011;51427;-27.442;153.014;2023-07-31T04:36:16;4.00;;;3.20;;
64915;SDS011;51427;-27.442;153.014;2023-07-31T04:38:44;5.25;;;3.05;;
64915;SDS011;51427;-27.442;153.014;2023-07-31T04:41:11;4.70;;;3.28;;
64915;SDS011;51427;-27.442;153.014;2023-07-31T04:43:39;3.53;;;3.10;;
64915;SDS011;51427;-27.442;153.014;2023-07-31T04:46:07;5.72;;;3.15;;
64915;SDS011;51427;-27.442;153.014;2023-07-31T04:48:34;4.60;;;3.45;;
64915;SDS011;51427;-27.442;153.014;2023-07-31T04:51:02;3.95;;;2.97;;
64915;SDS011;51427;-27.442;153.014;2023-07-31T04:53:29;4.97;;;3.20;;
64915;SDS011;51427;-27.442;153.014;2023-07-31T04:55:57;5.32;;;3.47;;
64915;SDS011;51427;-27.442;153.014;2023-07-31T04:58:25;5.57;;;3.40;;
64915;SDS011;51427;-27.442;153.014;2023-07-31T05:00:53;5.25;;;3.05;;
64915;SDS011;51427;-27.442;153.014;2023-07-31T05:03:20;3.58;;;3.28;;
64915;SDS011;51427;-27.442;153.014;2023-07-31T05:05:49;5.22;;;3.70;;
64915;SDS011;51427;-27.442;153.014;2023-07-31T05:08:17;4.28;;;3.08;;
64915;SDS011;51427;-27.442;153.014;2023-07-31T05:10:45;5.03;;;3.53;;
64915;SDS011;51427;-27.442;153.014;2023-07-31T05:13:13;5.07;;;3.40;;
64915;SDS011;51427;-27.442;153.014;2023-07-31T05:15:41;5.38;;;3.47;;
64915;SDS011;51427;-27.442;153.014;2023-07-31T05:18:08;5.55;;;3.50;;
64915;SDS011;51427;-27.442;153.014;2023-07-31T05:20:36;5.65;;;3.00;;
64915;SDS011;51427;-27.442;153.014;2023-07-31T05:23:03;5.22;;;3.08;;
64915;SDS011;51427;-27.442;153.014;2023-07-31T05:25:31;7.65;;;3.30;;
64915;SDS011;51427;-27.442;153.014;2023-07-31T05:27:58;4.32;;;2.90;;
64915;SDS011;51427;-27.442;153.014;2023-07-31T05:30:26;7.88;;;3.42;;
64915;SDS011;51427;-27.442;153.014;2023-07-31T05:32:56;6.10;;;3.35;;
64915;SDS011;51427;-27.442;153.014;2023-07-31T05:35:23;4.85;;;3.22;;
64915;SDS011;51427;-27.442;153.014;2023-07-31T05:37:51;5.63;;;3.40;;
64915;SDS011;51427;-27.442;153.014;2023-07-31T05:40:18;3.45;;;2.92;;
64915;SDS011;51427;-27.442;153.014;2023-07-31T05:42:46;4.35;;;3.13;;
64915;SDS011;51427;-27.442;153.014;2023-07-31T05:45:14;6.80;;;3.33;;
64915;SDS011;51427;-27.442;153.014;2023-07-31T05:47:41;5.70;;;3.20;;
64915;SDS011;51427;-27.442;153.014;2023-07-31T05:50:09;4.10;;;2.78;;
64915;SDS011;51427;-27.442;153.014;2023-07-31T05:52:37;7.80;;;3.40;;
64915;SDS011;51427;-27.442;153.014;2023-07-31T05:55:04;4.78;;;3.40;;
64915;SDS011;51427;-27.442;153.014;2023-07-31T05:57:33;4.70;;;3.08;;
64915;SDS011;51427;-27.442;153.014;2023-07-31T06:00:02;5.78;;;3.10;;
64915;SDS011;51427;-27.442;153.014;2023-07-31T06:02:30;4.95;;;3.30;;
64915;SDS011;51427;-27.442;153.014;2023-07-31T06:04:59;4.43;;;3.60;;
64915;SDS011;51427;-27.442;153.014;2023-07-31T06:07:27;5.00;;;3.20;;
64915;SDS011;51427;-27.442;153.014;2023-07-31T06:09:54;5.47;;;3.63;;
64915;SDS011;51427;-27.442;153.014;2023-07-31T06:12:23;4.95;;;3.47;;
64915;SDS011;51427;-27.442;153.014;2023-07-31T06:14:51;6.03;;;3.55;;
64915;SDS011;51427;-27.442;153.014;2023-07-31T06:17:18;5.30;;;3.20;;
64915;SDS011;51427;-27.442;153.014;2023-07-31T06:19:46;6.18;;;3.42;;
64915;SDS011;51427;-27.442;153.014;2023-07-31T06:22:13;6.60;;;3.38;;
64915;SDS011;51427;-27.442;153.014;2023-07-31T06:24:41;4.55;;;3.33;;
64915;SDS011;51427;-27.442;153.014;2023-07-31T06:27:08;5.00;;;3.05;;
64915;SDS011;51427;-27.442;153.014;2023-07-31T06:29:36;5.05;;;3.35;;
64915;SDS011;51427;-27.442;153.014;2023-07-31T06:32:04;6.32;;;3.00;;
64915;SDS011;51427;-27.442;153.014;2023-07-31T06:34:32;4.30;;;3.15;;
64915;SDS011;51427;-27.442;153.014;2023-07-31T06:36:59;4.38;;;3.30;;
64915;SDS011;51427;-27.442;153.014;2023-07-31T06:39:27;5.93;;;3.10;;
64915;SDS011;51427;-27.442;153.014;2023-07-31T06:41:54;6.60;;;2.95;;
64915;SDS011;51427;-27.442;153.014;2023-07-31T06:44:22;7.13;;;3.38;;
64915;SDS011;51427;-27.442;153.014;2023-07-31T06:46:50;5.90;;;2.85;;
64915;SDS011;51427;-27.442;153.014;2023-07-31T06:49:18;3.92;;;3.10;;
64915;SDS011;51427;-27.442;153.014;2023-07-31T06:51:45;4.88;;;3.10;;
64915;SDS011;51427;-27.442;153.014;2023-07-31T06:54:13;5.22;;;3.33;;
64915;SDS011;51427;-27.442;153.014;2023-07-31T06:56:40;4.28;;;3.17;;
64915;SDS011;51427;-27.442;153.014;2023-07-31T06:59:08;5.28;;;2.90;;
64915;SDS011;51427;-27.442;153.014;2023-07-31T07:01:36;4.82;;;3.10;;
64915;SDS011;51427;-27.442;153.014;2023-07-31T07:04:03;4.47;;;2.95;;
64915;SDS011;51427;-27.442;153.014;2023-07-31T07:06:31;6.10;;;3.00;;
64915;SDS011;51427;-27.442;153.014;2023-07-31T07:08:59;5.75;;;2.85;;
64915;SDS011;51427;-27.442;153.014;2023-07-31T07:11:26;4.38;;;3.03;;
64915;SDS011;51427;-27.442;153.014;2023-07-31T07:13:54;5.75;;;2.90;;
64915;SDS011;51427;-27.442;153.014;2023-07-31T07:16:21;7.47;;;2.88;;
64915;SDS011;51427;-27.442;153.014;2023-07-31T07:18:49;5.57;;;3.20;;
64915;SDS011;51427;-27.442;153.014;2023-07-31T07:21:16;3.75;;;2.63;;
64915;SDS011;51427;-27.442;153.014;2023-07-31T07:23:44;5.18;;;2.75;;
64915;SDS011;51427;-27.442;153.014;2023-07-31T07:26:12;4.88;;;2.92;;
64915;SDS011;51427;-27.442;153.014;2023-07-31T07:28:39;5.38;;;3.22;;
64915;SDS011;51427;-27.442;153.014;2023-07-31T07:31:07;5.70;;;2.72;;
64915;SDS011;51427;-27.442;153.014;2023-07-31T07:33:34;4.53;;;2.38;;
64915;SDS011;51427;-27.442;153.014;2023-07-31T07:36:02;5.15;;;2.90;;
64915;SDS011;51427;-27.442;153.014;2023-07-31T07:38:31;6.18;;;2.90;;
64915;SDS011;51427;-27.442;153.014;2023-07-31T07:40:59;7.10;;;2.90;;
64915;SDS011;51427;-27.442;153.014;2023-07-31T07:43:26;4.90;;;2.90;;
64915;SDS011;51427;-27.442;153.014;2023-07-31T07:45:54;6.65;;;3.13;;
64915;SDS011;51427;-27.442;153.014;2023-07-31T07:48:21;4.13;;;2.63;;
64915;SDS011;51427;-27.442;153.014;2023-07-31T07:50:55;4.30;;;2.70;;
64915;SDS011;51427;-27.442;153.014;2023-07-31T07:53:23;3.65;;;2.78;;
64915;SDS011;51427;-27.442;153.014;2023-07-31T07:55:50;6.80;;;3.20;;
64915;SDS011;51427;-27.442;153.014;2023-07-31T07:58:18;5.18;;;2.78;;
64915;SDS011;51427;-27.442;153.014;2023-07-31T08:00:54;5.40;;;2.80;;
64915;SDS011;51427;-27.442;153.014;2023-07-31T08:03:22;6.43;;;2.90;;
64915;SDS011;51427;-27.442;153.014;2023-07-31T08:05:49;6.57;;;2.80;;
64915;SDS011;51427;-27.442;153.014;2023-07-31T08:08:17;5.40;;;2.85;;
64915;SDS011;51427;-27.442;153.014;2023-07-31T08:10:45;5.00;;;2.70;;
64915;SDS011;51427;-27.442;153.014;2023-07-31T08:13:13;4.13;;;2.70;;
64915;SDS011;51427;-27.442;153.014;2023-07-31T08:15:43;3.92;;;2.50;;
64915;SDS011;51427;-27.442;153.014;2023-07-31T08:18:11;6.53;;;3.25;;
64915;SDS011;51427;-27.442;153.014;2023-07-31T08:20:39;8.20;;;5.82;;
64915;SDS011;51427;-27.442;153.014;2023-07-31T08:23:06;6.50;;;5.40;;
64915;SDS011;51427;-27.442;153.014;2023-07-31T08:25:35;7.70;;;4.35;;
64915;SDS011;51427;-27.442;153.014;2023-07-31T08:28:03;5.40;;;4.18;;
64915;SDS011;51427;-27.442;153.014;2023-07-31T08:30:31;9.25;;;4.10;;
64915;SDS011;51427;-27.442;153.014;2023-07-31T08:33:02;4.88;;;3.60;;
64915;SDS011;51427;-27.442;153.014;2023-07-31T08:35:29;5.85;;;3.70;;
64915;SDS011;51427;-27.442;153.014;2023-07-31T08:37:58;5.90;;;3.30;;
64915;SDS011;51427;-27.442;153.014;2023-07-31T08:40:25;6.43;;;5.00;;
64915;SDS011;51427;-27.442;153.014;2023-07-31T08:42:54;10.15;;;5.13;;
64915;SDS011;51427;-27.442;153.014;2023-07-31T08:45:24;5.55;;;4.50;;
64915;SDS011;51427;-27.442;153.014;2023-07-31T08:47:52;7.72;;;5.20;;
64915;SDS011;51427;-27.442;153.014;2023-07-31T08:50:22;15.60;;;9.82;;
64915;SDS011;51427;-27.442;153.014;2023-07-31T08:52:50;9.57;;;5.80;;
64915;SDS011;51427;-27.442;153.014;2023-07-31T08:55:18;10.35;;;5.78;;
64915;SDS011;51427;-27.442;153.014;2023-07-31T08:57:52;10.15;;;5.07;;
64915;SDS011;51427;-27.442;153.014;2023-07-31T09:00:20;8.13;;;5.00;;
64915;SDS011;51427;-27.442;153.014;2023-07-31T09:02:57;6.60;;;4.20;;
64915;SDS011;51427;-27.442;153.014;2023-07-31T09:05:30;13.23;;;7.20;;
64915;SDS011;51427;-27.442;153.014;2023-07-31T09:07:58;14.38;;;8.50;;
64915;SDS011;51427;-27.442;153.014;2023-07-31T09:10:26;12.60;;;7.35;;
64915;SDS011;51427;-27.442;153.014;2023-07-31T09:12:54;14.40;;;7.55;;
64915;SDS011;51427;-27.442;153.014;2023-07-31T09:15:23;14.55;;;7.85;;
64915;SDS011;51427;-27.442;153.014;2023-07-31T09:17:58;13.13;;;7.35;;
64915;SDS011;51427;-27.442;153.014;2023-07-31T09:20:27;13.65;;;7.72;;
64915;SDS011;51427;-27.442;153.014;2023-07-31T09:22:55;13.07;;;6.93;;
64915;SDS011;51427;-27.442;153.014;2023-07-31T09:25:23;13.75;;;7.43;;
64915;SDS011;51427;-27.442;153.014;2023-07-31T09:27:59;10.48;;;5.93;;
64915;SDS011;51427;-27.442;153.014;2023-07-31T09:30:28;12.40;;;6.22;;
64915;SDS011;51427;-27.442;153.014;2023-07-31T09:33:05;8.60;;;4.97;;
64915;SDS011;51427;-27.442;153.014;2023-07-31T09:35:35;6.35;;;4.47;;
64915;SDS011;51427;-27.442;153.014;2023-07-31T09:40:39;6.95;;;4.38;;
64915;SDS011;51427;-27.442;153.014;2023-07-31T09:43:09;7.10;;;4.28;;
64915;SDS011;51427;-27.442;153.014;2023-07-31T09:45:38;9.68;;;4.53;;
64915;SDS011;51427;-27.442;153.014;2023-07-31T09:48:10;6.97;;;4.60;;
64915;SDS011;51427;-27.442;153.014;2023-07-31T09:50:42;10.35;;;6.30;;
64915;SDS011;51427;-27.442;153.014;2023-07-31T09:53:12;5.95;;;4.13;;
64915;SDS011;51427;-27.442;153.014;2023-07-31T09:55:40;8.93;;;4.53;;
64915;SDS011;51427;-27.442;153.014;2023-07-31T09:58:09;7.85;;;4.72;;
64915;SDS011;51427;-27.442;153.014;2023-07-31T10:00:38;9.02;;;4.75;;
64915;SDS011;51427;-27.442;153.014;2023-07-31T10:03:09;9.52;;;4.38;;
64915;SDS011;51427;-27.442;153.014;2023-07-31T10:05:42;7.97;;;4.50;;
64915;SDS011;51427;-27.442;153.014;2023-07-31T10:10:42;7.35;;;4.05;;
64915;SDS011;51427;-27.442;153.014;2023-07-31T10:13:11;6.50;;;4.50;;
64915;SDS011;51427;-27.442;153.014;2023-07-31T10:15:40;7.28;;;4.03;;
64915;SDS011;51427;-27.442;153.014;2023-07-31T10:18:09;7.15;;;4.60;;
64915;SDS011;51427;-27.442;153.014;2023-07-31T10:20:36;9.00;;;5.90;;
64915;SDS011;51427;-27.442;153.014;2023-07-31T10:23:04;10.38;;;8.32;;
64915;SDS011;51427;-27.442;153.014;2023-07-31T10:25:33;12.43;;;8.38;;
64915;SDS011;51427;-27.442;153.014;2023-07-31T10:28:01;11.23;;;8.93;;
64915;SDS011;51427;-27.442;153.014;2023-07-31T10:30:29;8.88;;;6.65;;
64915;SDS011;51427;-27.442;153.014;2023-07-31T10:33:00;7.95;;;5.38;;
64915;SDS011;51427;-27.442;153.014;2023-07-31T10:35:28;8.43;;;5.30;;
64915;SDS011;51427;-27.442;153.014;2023-07-31T10:37:56;9.27;;;5.13;;
64915;SDS011;51427;-27.442;153.014;2023-07-31T10:40:39;6.78;;;5.10;;
64915;SDS011;51427;-27.442;153.014;2023-07-31T10:43:07;7.32;;;4.47;;
64915;SDS011;51427;-27.442;153.014;2023-07-31T10:45:37;7.07;;;5.15;;
64915;SDS011;51427;-27.442;153.014;2023-07-31T10:48:14;8.02;;;4.55;;
64915;SDS011;51427;-27.442;153.014;2023-07-31T10:50:49;7.03;;;4.25;;
64915;SDS011;51427;-27.442;153.014;2023-07-31T10:53:30;6.93;;;4.15;;
64915;SDS011;51427;-27.442;153.014;2023-07-31T10:56:00;6.97;;;4.38;;
64915;SDS011;51427;-27.442;153.014;2023-07-31T10:58:28;6.45;;;4.35;;
64915;SDS011;51427;-27.442;153.014;2023-07-31T11:00:58;8.90;;;4.82;;
64915;SDS011;51427;-27.442;153.014;2023-07-31T11:03:49;9.82;;;8.93;;
64915;SDS011;51427;-27.442;153.014;2023-07-31T11:06:20;9.00;;;7.63;;
64915;SDS011;51427;-27.442;153.014;2023-07-31T11:08:48;6.90;;;5.00;;
64915;SDS011;51427;-27.442;153.014;2023-07-31T11:11:18;7.20;;;4.97;;
64915;SDS011;51427;-27.442;153.014;2023-07-31T11:13:50;8.88;;;5.47;;
64915;SDS011;51427;-27.442;153.014;2023-07-31T11:16:20;8.27;;;4.78;;
64915;SDS011;51427;-27.442;153.014;2023-07-31T11:18:48;17.65;;;15.95;;
64915;SDS011;51427;-27.442;153.014;2023-07-31T11:21:18;6.35;;;4.95;;
64915;SDS011;51427;-27.442;153.014;2023-07-31T11:23:56;7.45;;;4.95;;
64915;SDS011;51427;-27.442;153.014;2023-07-31T11:26:24;6.90;;;5.22;;
64915;SDS011;51427;-27.442;153.014;2023-07-31T11:28:52;7.53;;;4.80;;
64915;SDS011;51427;-27.442;153.014;2023-07-31T11:31:19;9.60;;;4.90;;
64915;SDS011;51427;-27.442;153.014;2023-07-31T11:33:46;5.72;;;4.50;;
64915;SDS011;51427;-27.442;153.014;2023-07-31T11:36:17;7.60;;;4.65;;
64915;SDS011;51427;-27.442;153.014;2023-07-31T11:38:46;9.32;;;6.47;;
64915;SDS011;51427;-27.442;153.014;2023-07-31T11:41:14;8.80;;;6.20;;
64915;SDS011;51427;-27.442;153.014;2023-07-31T11:43:42;7.07;;;5.22;;
64915;SDS011;51427;-27.442;153.014;2023-07-31T11:46:09;5.90;;;4.90;;
64915;SDS011;51427;-27.442;153.014;2023-07-31T11:48:37;5.88;;;4.57;;
64915;SDS011;51427;-27.442;153.014;2023-07-31T11:51:05;11.02;;;5.63;;
64915;SDS011;51427;-27.442;153.014;2023-07-31T11:53:44;9.68;;;5.28;;
64915;SDS011;51427;-27.442;153.014;2023-07-31T11:56:16;7.72;;;5.20;;
64915;SDS011;51427;-27.442;153.014;2023-07-31T11:58:53;7.40;;;4.53;;
64915;SDS011;51427;-27.442;153.014;2023-07-31T12:01:24;7.88;;;4.60;;
64915;SDS011;51427;-27.442;153.014;2023-07-31T12:03:53;7.35;;;4.55;;
64915;SDS011;51427;-27.442;153.014;2023-07-31T12:06:21;7.35;;;4.88;;
64915;SDS011;51427;-27.442;153.014;2023-07-31T12:08:48;7.55;;;4.88;;
64915;SDS011;51427;-27.442;153.014;2023-07-31T12:11:15;9.13;;;5.72;;
64915;SDS011;51427;-27.442;153.014;2023-07-31T12:13:43;7.72;;;4.97;;
64915;SDS011;51427;-27.442;153.014;2023-07-31T12:16:10;6.97;;;5.30;;
64915;SDS011;51427;-27.442;153.014;2023-07-31T12:18:38;6.45;;;5.28;;
64915;SDS011;51427;-27.442;153.014;2023-07-31T12:21:07;6.28;;;4.63;;
64915;SDS011;51427;-27.442;153.014;2023-07-31T12:23:37;8.30;;;5.53;;
64915;SDS011;51427;-27.442;153.014;2023-07-31T12:28:42;8.43;;;5.03;;
64915;SDS011;51427;-27.442;153.014;2023-07-31T12:31:18;7.40;;;5.15;;
64915;SDS011;51427;-27.442;153.014;2023-07-31T12:33:48;8.32;;;5.32;;
64915;SDS011;51427;-27.442;153.014;2023-07-31T12:36:17;9.15;;;5.28;;
64915;SDS011;51427;-27.442;153.014;2023-07-31T12:38:52;9.00;;;5.30;;
64915;SDS011;51427;-27.442;153.014;2023-07-31T12:41:22;8.50;;;5.13;;
64915;SDS011;51427;-27.442;153.014;2023-07-31T12:43:49;9.93;;;5.53;;
64915;SDS011;51427;-27.442;153.014;2023-07-31T12:46:17;6.75;;;4.97;;
64915;SDS011;51427;-27.442;153.014;2023-07-31T12:48:44;7.50;;;4.75;;
64915;SDS011;51427;-27.442;153.014;2023-07-31T12:51:11;9.93;;;5.10;;
64915;SDS011;51427;-27.442;153.014;2023-07-31T12:53:39;7.85;;;4.45;;
64915;SDS011;51427;-27.442;153.014;2023-07-31T12:56:06;7.50;;;5.13;;
64915;SDS011;51427;-27.442;153.014;2023-07-31T12:58:34;8.57;;;5.15;;
64915;SDS011;51427;-27.442;153.014;2023-07-31T13:01:01;7.82;;;4.97;;
64915;SDS011;51427;-27.442;153.014;2023-07-31T13:03:28;8.00;;;5.20;;
64915;SDS011;51427;-27.442;153.014;2023-07-31T13:05:55;9.02;;;4.72;;
64915;SDS011;51427;-27.442;153.014;2023-07-31T13:08:23;7.57;;;5.25;;
64915;SDS011;51427;-27.442;153.014;2023-07-31T13:10:50;7.63;;;5.00;;
64915;SDS011;51427;-27.442;153.014;2023-07-31T13:13:17;7.45;;;4.88;;
64915;SDS011;51427;-27.442;153.014;2023-07-31T13:15:45;6.40;;;4.93;;
64915;SDS011;51427;-27.442;153.014;2023-07-31T13:18:12;6.47;;;4.75;;
64915;SDS011;51427;-27.442;153.014;2023-07-31T13:20:39;10.43;;;5.05;;
64915;SDS011;51427;-27.442;153.014;2023-07-31T13:23:07;7.22;;;4.82;;
64915;SDS011;51427;-27.442;153.014;2023-07-31T13:25:34;5.45;;;4.38;;
64915;SDS011;51427;-27.442;153.014;2023-07-31T13:28:01;10.32;;;4.72;;
64915;SDS011;51427;-27.442;153.014;2023-07-31T13:30:28;5.93;;;4.57;;
64915;SDS011;51427;-27.442;153.014;2023-07-31T13:32:55;6.57;;;4.50;;
64915;SDS011;51427;-27.442;153.014;2023-07-31T13:35:23;10.82;;;5.93;;
64915;SDS011;51427;-27.442;153.014;2023-07-31T13:37:50;8.27;;;5.30;;
64915;SDS011;51427;-27.442;153.014;2023-07-31T13:40:17;8.60;;;4.57;;
64915;SDS011;51427;-27.442;153.014;2023-07-31T13:42:44;7.60;;;4.55;;
64915;SDS011;51427;-27.442;153.014;2023-07-31T13:45:13;9.43;;;5.13;;
64915;SDS011;51427;-27.442;153.014;2023-07-31T13:47:40;8.05;;;4.95;;
64915;SDS011;51427;-27.442;153.014;2023-07-31T13:50:08;6.10;;;4.55;;
64915;SDS011;51427;-27.442;153.014;2023-07-31T13:52:35;6.32;;;5.10;;
64915;SDS011;51427;-27.442;153.014;2023-07-31T13:55:02;5.55;;;4.50;;
64915;SDS011;51427;-27.442;153.014;2023-07-31T13:57:30;7.90;;;4.95;;
64915;SDS011;51427;-27.442;153.014;2023-07-31T13:59:57;5.90;;;4.75;;
64915;SDS011;51427;-27.442;153.014;2023-07-31T14:02:24;7.53;;;4.90;;
64915;SDS011;51427;-27.442;153.014;2023-07-31T14:04:51;9.00;;;4.97;;
64915;SDS011;51427;-27.442;153.014;2023-07-31T14:07:19;7.55;;;5.00;;
64915;SDS011;51427;-27.442;153.014;2023-07-31T14:09:46;7.38;;;4.13;;
64915;SDS011;51427;-27.442;153.014;2023-07-31T14:12:13;7.53;;;4.53;;
64915;SDS011;51427;-27.442;153.014;2023-07-31T14:14:40;6.60;;;4.55;;
64915;SDS011;51427;-27.442;153.014;2023-07-31T14:17:07;6.68;;;4.25;;
64915;SDS011;51427;-27.442;153.014;2023-07-31T14:19:35;4.75;;;4.13;;
64915;SDS011;51427;-27.442;153.014;2023-07-31T14:22:02;6.50;;;4.40;;
64915;SDS011;51427;-27.442;153.014;2023-07-31T14:24:30;9.27;;;5.43;;
64915;SDS011;51427;-27.442;153.014;2023-07-31T14:26:58;6.13;;;4.70;;
64915;SDS011;51427;-27.442;153.014;2023-07-31T14:29:25;8.25;;;4.85;;
64915;SDS011;51427;-27.442;153.014;2023-07-31T14:31:52;6.53;;;4.50;;
64915;SDS011;51427;-27.442;153.014;2023-07-31T14:34:19;8.00;;;4.88;;
64915;SDS011;51427;-27.442;153.014;2023-07-31T14:36:46;6.82;;;4.68;;
64915;SDS011;51427;-27.442;153.014;2023-07-31T14:39:14;8.05;;;4.78;;